Etusivu
METAR-TAF:

METAR-TAF

Lentoasemat :

Girona-Costa Bravan lentoasema

Girona, Espanja

Leveyspiiri: 41-54N, Pituuspiiri: 002-46E, korkeus merenpinnasta: 143 m

Tämänhetkinen sää

Tämä raportti tehtiin 43 minuuttia sitten, kello 18.30 UTC
Tuuli 2 kn eri suunnista
Lämpötila 7°C
Kosteus 87%
Ilmanpaine 1006 hPa
Näkyvyys 10 km tai enemmän
ei pilviä alle 1500 m:ssä eikä cumulonimbus-pilviä

METAR: LEGE 121830Z VRB02KT CAVOK 07/05 Q1006

Aika: 20:13 (19:13 UTC)

Sääennuste

Tämä raportti tehtiin 2 tuntia ja 13 minuuttia sitten, kello 17.00 UTC
Ennuste voimassa 12. päivästä klo 18 UTC - 13. päivään klo 18 UTC
Tuuli 6 kn luoteesta
Näkyvyys 10 km tai enemmän
Muutamia pilviä 4000 ft:n korkeudessa
Ajoittain
13. päivästä klo 12 UTC - 13. päivään klo 14 UTC
Tuuli 7 kn koillisesta
Tulossa
13. päivästä klo 14 UTC - 13. päivään klo 16 UTC
Tuuli 7 kn etelästä

TAF: LEGE 121700Z 1218/1318 32006KT 9999 FEW040 TX14/1313Z TN05/1306Z TEMPO 1312/1314 04007KT BECMG 1314/1316 19007KT

Säähavainnot ja -ennusteet yli 4000 lentoasemalta (METAR- ja TAF-raportit).

Käytössä olevat sääasemat on merkitty karttaan keltaisilla ja punaisilla pisteillä.

Aseta hiiri pisteen päälle nähdäksesi sääaseman nimen.

Klikkaa sitten nähdäksesi säähavainnot ja -ennusteet.

Kartan vaihtaminen: klikkaa mustalla rastilla varustettuja vihreitä pisteitä, niin voit zoomata sisään; viivalla varustettua vihreää pistettä, niin voit zoomata ulos tai vihreitä nuolia, niin pääset viereisille kartoille.


METAR-TAF: